Time;durP1;ratioP1;P1;durP2;ratioP2;P2;SDS_P1;SDS_P2;PMS_P1;PMS_P2;Temp;Humidity;BMP_temperature;BMP_pressure;BME280_temperature;BME280_humidity;BME280_pressure;Samples;Min_cycle;Max_cycle;Signal;HPM_P1;HPM_P2
2022/04/10 00:01:57;;;;;;;0.98;0.30;;;24.30;34.70;;;;;;5109622;28;20392;-61
2022/04/10 00:04:25;;;;;;;0.40;0.30;;;24.10;34.90;;;;;;5106790;28;20112;-62
2022/04/10 00:06:52;;;;;;;0.52;0.30;;;24.10;35.10;;;;;;5105957;28;20826;-62
2022/04/10 00:09:19;;;;;;;4.35;0.52;;;24.00;35.30;;;;;;5106049;28;20430;-62
2022/04/10 00:11:46;;;;;;;1.83;0.30;;;23.90;35.40;;;;;;5103350;28;20036;-61
2022/04/10 00:14:13;;;;;;;0.55;0.22;;;23.80;35.40;;;;;;5108676;28;20043;-62
2022/04/10 00:16:42;;;;;;;1.08;0.30;;;23.80;35.50;;;;;;5109548;28;20508;-61
2022/04/10 00:19:09;;;;;;;1.88;0.10;;;23.70;35.80;;;;;;5095017;28;20139;-61
2022/04/10 00:21:36;;;;;;;1.00;0.22;;;23.70;35.90;;;;;;5092571;28;20566;-61
2022/04/10 00:24:25;;;;;;;2.83;0.50;;;23.60;36.00;;;;;;5092575;28;20886;-61
2022/04/10 00:26:53;;;;;;;2.70;0.55;;;23.50;36.10;;;;;;5092745;28;20512;-61
2022/04/10 00:29:20;;;;;;;2.60;0.30;;;23.50;36.30;;;;;;5091896;28;20032;-61
2022/04/10 00:31:49;;;;;;;1.00;0.35;;;23.40;36.40;;;;;;5089977;28;20051;-61
2022/04/10 00:34:16;;;;;;;2.75;0.40;;;23.30;36.60;;;;;;5091776;28;20052;-61
2022/04/10 00:36:43;;;;;;;2.28;0.30;;;23.30;36.80;;;;;;5092000;28;20048;-61
2022/04/10 00:39:10;;;;;;;3.25;0.35;;;23.20;36.70;;;;;;5091782;28;20573;-61
2022/04/10 00:41:38;;;;;;;1.45;0.35;;;23.20;37.00;;;;;;5091814;28;20074;-60
2022/04/10 00:44:08;;;;;;;0.60;0.10;;;23.10;37.10;;;;;;5089271;28;20050;-60
2022/04/10 00:46:36;;;;;;;6.47;0.30;;;23.10;37.30;;;;;;5090222;28;20036;-60
2022/04/10 00:49:06;;;;;;;2.53;0.85;;;23.00;37.40;;;;;;5099820;27;20042;-60
2022/04/10 00:51:43;;;;;;;16.85;0.57;;;23.00;37.50;;;;;;5101126;27;20113;-60
2022/04/10 00:54:13;;;;;;;1.75;0.70;;;22.90;37.70;;;;;;5091941;28;20731;-61
2022/04/10 00:56:40;;;;;;;2.63;0.30;;;22.90;37.70;;;;;;5101238;28;20040;-62
2022/04/10 00:59:08;;;;;;;3.45;0.30;;;22.80;37.90;;;;;;5092198;28;20047;-61
2022/04/10 01:01:36;;;;;;;2.25;0.20;;;22.90;38.00;;;;;;5073138;28;20048;-61
2022/04/10 01:04:07;;;;;;;0.55;0.20;;;22.80;38.10;;;;;;5091932;28;20051;-61
2022/04/10 01:06:35;;;;;;;0.57;0.20;;;22.80;38.10;;;;;;5092870;28;20048;-61
2022/04/10 01:09:03;;;;;;;1.35;0.20;;;22.70;38.10;;;;;;5077907;28;20846;-61
2022/04/10 01:11:30;;;;;;;1.60;0.73;;;22.70;38.20;;;;;;5088196;28;20036;-61
2022/04/10 01:13:58;;;;;;;1.02;0.30;;;22.60;38.20;;;;;;5070516;28;20048;-61
2022/04/10 01:16:28;;;;;;;4.28;0.30;;;22.60;38.40;;;;;;5082530;28;20036;-61
2022/04/10 01:18:57;;;;;;;3.35;0.17;;;22.60;38.50;;;;;;5091121;28;20036;-61
2022/04/10 01:21:27;;;;;;;0.98;0.30;;;22.50;38.60;;;;;;5073746;28;20043;-60
2022/04/10 01:24:00;;;;;;;1.85;0.52;;;22.50;38.70;;;;;;5084541;28;20036;-62
2022/04/10 01:26:30;;;;;;;2.35;0.20;;;22.50;38.80;;;;;;5087785;28;20048;-62
2022/04/10 01:28:58;;;;;;;1.98;0.25;;;22.50;38.90;;;;;;5070416;28;20067;-62
2022/04/10 01:31:28;;;;;;;1.20;0.10;;;22.50;38.80;;;;;;5090107;28;20044;-60
2022/04/10 01:33:57;;;;;;;2.47;0.50;;;22.40;38.70;;;;;;5078734;28;20439;-61
2022/04/10 01:36:26;;;;;;;0.85;0.10;;;22.40;38.90;;;;;;5091351;28;20043;-61
2022/04/10 01:38:55;;;;;;;1.02;0.30;;;22.40;38.90;;;;;;5091334;28;20612;-60
2022/04/10 01:41:25;;;;;;;1.20;0.82;;;22.40;38.90;;;;;;5072781;28;20054;-61
2022/04/10 01:43:54;;;;;;;0.38;0.10;;;22.40;38.90;;;;;;5103504;28;20046;-61
2022/04/10 01:46:25;;;;;;;0.50;0.28;;;22.30;38.90;;;;;;5073771;28;20047;-61
2022/04/10 01:48:52;;;;;;;1.20;0.10;;;22.30;39.00;;;;;;5091825;28;20062;-60
2022/04/10 01:51:19;;;;;;;0.82;0.20;;;22.30;39.10;;;;;;5075216;28;20082;-61
2022/04/10 01:53:46;;;;;;;0.40;0.10;;;22.20;39.20;;;;;;5104077;28;20058;-61
2022/04/10 01:56:13;;;;;;;2.85;0.68;;;22.20;39.30;;;;;;5101496;28;20074;-61
2022/04/10 01:58:43;;;;;;;0.90;0.20;;;22.20;39.40;;;;;;5089966;28;20059;-61
2022/04/10 02:01:12;;;;;;;0.30;0.20;;;22.20;39.50;;;;;;5089396;28;20135;-61
2022/04/10 02:03:40;;;;;;;1.20;0.22;;;22.20;39.60;;;;;;5090948;28;20074;-60
2022/04/10 02:06:10;;;;;;;0.20;0.20;;;22.20;39.70;;;;;;5089268;28;20512;-60
2022/04/10 02:08:38;;;;;;;2.22;0.20;;;22.20;39.70;;;;;;5088806;28;20088;-61
2022/04/10 02:11:11;;;;;;;0.60;0.28;;;22.20;39.90;;;;;;5070108;28;20590;-62
2022/04/10 02:13:39;;;;;;;1.17;0.30;;;22.20;39.80;;;;;;5091064;28;20055;-63
2022/04/10 02:16:11;;;;;;;1.08;0.38;;;22.10;39.70;;;;;;5089261;28;20044;-60
2022/04/10 02:18:38;;;;;;;1.88;0.57;;;22.10;39.80;;;;;;5089604;28;20091;-61
2022/04/10 02:21:06;;;;;;;0.55;0.20;;;22.10;39.80;;;;;;5076155;28;20043;-61
2022/04/10 02:23:33;;;;;;;0.45;0.20;;;22.10;39.90;;;;;;5099195;28;20468;-61
2022/04/10 02:26:01;;;;;;;0.30;0.20;;;22.10;40.00;;;;;;5069016;28;20047;-60
2022/04/10 02:28:28;;;;;;;0.20;0.13;;;22.10;40.00;;;;;;5072319;28;20415;-61
2022/04/10 02:30:55;;;;;;;0.20;0.20;;;22.10;40.00;;;;;;5088684;28;20409;-60
2022/04/10 02:33:24;;;;;;;0.28;0.20;;;22.00;40.00;;;;;;5088545;28;20044;-61
2022/04/10 02:35:51;;;;;;;0.22;0.22;;;22.10;40.10;;;;;;5090169;28;20135;-61
2022/04/10 02:38:20;;;;;;;1.00;0.17;;;22.00;40.10;;;;;;5071001;28;20050;-61
2022/04/10 02:40:47;;;;;;;0.47;0.20;;;22.00;40.20;;;;;;5082076;28;20458;-60
2022/04/10 02:43:15;;;;;;;0.30;0.20;;;22.00;40.10;;;;;;5089767;28;20044;-60
2022/04/10 02:45:46;;;;;;;0.20;0.10;;;22.00;40.10;;;;;;5089806;28;20044;-61
2022/04/10 02:48:13;;;;;;;1.20;0.10;;;22.00;40.20;;;;;;5088490;28;20043;-60
2022/04/10 02:50:42;;;;;;;2.15;0.20;;;22.00;40.20;;;;;;5086960;28;20127;-61
2022/04/10 02:53:09;;;;;;;0.30;0.30;;;22.00;40.20;;;;;;5101011;28;20501;-61
2022/04/10 02:55:37;;;;;;;0.95;0.20;;;22.00;40.10;;;;;;5087214;28;20043;-61
2022/04/10 02:58:23;;;;;;;0.33;0.20;;;22.00;40.20;;;;;;5091210;28;20134;-60
2022/04/10 03:01:09;;;;;;;2.00;0.20;;;21.90;40.20;;;;;;5074229;28;20301;-61
2022/04/10 03:03:56;;;;;;;1.17;0.10;;;21.90;40.30;;;;;;5087005;28;20418;-61
2022/04/10 03:06:45;;;;;;;0.40;0.35;;;21.90;40.30;;;;;;5079534;28;20546;-62
2022/04/10 03:09:31;;;;;;;0.20;0.10;;;21.90;40.30;;;;;;5088533;28;20043;-61
2022/04/10 03:12:16;;;;;;;0.60;0.10;;;21.80;40.20;;;;;;5088493;28;20535;-61
2022/04/10 03:15:02;;;;;;;0.10;0.10;;;21.80;40.20;;;;;;5087854;28;20055;-61
2022/04/10 03:17:47;;;;;;;0.53;0.33;;;21.80;40.80;;;;;;5082296;28;20059;-60
2022/04/10 03:20:34;;;;;;;1.40;0.10;;;21.80;40.20;;;;;;5070469;28;20395;-60
2022/04/10 03:23:21;;;;;;;2.43;0.30;;;21.80;40.20;;;;;;5084015;28;20070;-60
2022/04/10 03:26:06;;;;;;;2.13;0.10;;;21.80;40.30;;;;;;5103029;28;20532;-59
2022/04/10 03:28:52;;;;;;;1.37;0.10;;;21.80;40.40;;;;;;5072015;28;20059;-60
2022/04/10 03:31:38;;;;;;;0.57;0.50;;;21.70;40.30;;;;;;5090413;28;20055;-60
2022/04/10 03:34:24;;;;;;;0.40;0.20;;;21.70;40.40;;;;;;5090052;28;20097;-60
2022/04/10 03:37:10;;;;;;;0.20;0.17;;;21.70;40.40;;;;;;5088495;28;20055;-60
2022/04/10 03:39:57;;;;;;;1.27;0.10;;;21.70;40.40;;;;;;5087989;28;20066;-60
2022/04/10 03:42:43;;;;;;;0.80;0.10;;;21.70;40.50;;;;;;5089706;28;20197;-60
2022/04/10 03:45:31;;;;;;;0.20;0.10;;;21.70;40.40;;;;;;5088611;28;20059;-60
2022/04/10 03:48:16;;;;;;;1.30;0.10;;;21.70;40.40;;;;;;5076412;28;20050;-59
2022/04/10 03:51:02;;;;;;;0.93;0.52;;;21.70;40.40;;;;;;5100495;28;20047;-58
2022/04/10 03:53:48;;;;;;;1.75;0.10;;;21.70;40.50;;;;;;5098308;28;20059;-59
2022/04/10 03:56:38;;;;;;;6.55;0.20;;;21.70;40.50;;;;;;5100520;28;20188;-59
2022/04/10 03:59:25;;;;;;;0.50;0.25;;;21.70;40.50;;;;;;5074001;28;20047;-61
2022/04/10 04:02:16;;;;;;;1.58;0.10;;;21.60;40.50;;;;;;5102404;28;20065;-62
2022/04/10 04:05:02;;;;;;;0.38;0.10;;;21.70;41.10;;;;;;5086833;28;20526;-61
2022/04/10 04:07:47;;;;;;;3.20;0.10;;;21.60;40.40;;;;;;5085374;28;20133;-61
2022/04/10 04:10:34;;;;;;;1.60;0.20;;;21.60;40.40;;;;;;5088806;28;20058;-61
2022/04/10 04:13:23;;;;;;;1.83;0.20;;;21.60;40.40;;;;;;5076426;28;20080;-61
2022/04/10 04:16:09;;;;;;;0.22;0.22;;;21.60;40.50;;;;;;5073246;28;20093;-60
2022/04/10 04:18:56;;;;;;;0.75;0.10;;;21.60;40.50;;;;;;5086012;28;20142;-59
2022/04/10 04:21:42;;;;;;;0.10;0.10;;;21.60;40.50;;;;;;5094319;28;20050;-60
2022/04/10 04:24:28;;;;;;;;;;;21.60;40.50;;;;;;5088174;28;20795;-60
2022/04/10 04:27:14;;;;;;;1.40;0.10;;;21.50;40.40;;;;;;5088771;28;19974;-59
2022/04/10 04:30:02;;;;;;;0.60;0.10;;;21.50;40.50;;;;;;5089113;28;20051;-59
2022/04/10 04:32:50;;;;;;;0.20;0.20;;;21.50;40.50;;;;;;5091188;28;20039;-59
2022/04/10 04:35:37;;;;;;;0.93;0.10;;;21.50;40.50;;;;;;5076585;28;20055;-59
2022/04/10 04:38:24;;;;;;;0.20;0.20;;;21.50;40.50;;;;;;5076662;28;20136;-60
2022/04/10 04:41:11;;;;;;;0.10;0.10;;;21.50;40.50;;;;;;5090540;28;20063;-60
2022/04/10 04:43:57;;;;;;;2.92;0.20;;;21.50;40.50;;;;;;5090038;28;20054;-61
2022/04/10 04:46:44;;;;;;;2.40;0.40;;;21.50;40.50;;;;;;5080539;28;20055;-60
2022/04/10 04:49:30;;;;;;;1.30;0.10;;;21.50;40.60;;;;;;5081144;28;20562;-60
2022/04/10 04:52:16;;;;;;;1.83;0.10;;;21.50;40.60;;;;;;5096586;28;20450;-61
2022/04/10 04:55:02;;;;;;;;;;;21.50;40.60;;;;;;5098831;28;20058;-61
2022/04/10 04:57:48;;;;;;;0.90;0.10;;;21.40;40.50;;;;;;5092247;28;20053;-61
2022/04/10 05:00:34;;;;;;;1.33;0.52;;;21.40;40.70;;;;;;5095646;28;20062;-61
2022/04/10 05:03:23;;;;;;;1.17;0.10;;;21.50;40.70;;;;;;5096073;28;20076;-61
2022/04/10 05:06:09;;;;;;;0.60;0.10;;;21.40;40.70;;;;;;5091720;28;20503;-60
2022/04/10 05:08:56;;;;;;;0.73;0.10;;;21.40;40.60;;;;;;5090206;28;20051;-60
2022/04/10 05:11:41;;;;;;;0.40;0.10;;;21.40;40.70;;;;;;5087676;28;20051;-61
2022/04/10 05:14:28;;;;;;;2.08;0.50;;;21.40;40.70;;;;;;5097655;28;20397;-61
2022/04/10 05:17:15;;;;;;;1.63;0.13;;;21.40;40.70;;;;;;5118704;27;20062;-60
2022/04/10 05:20:08;;;;;;;1.48;0.17;;;21.40;40.70;;;;;;5104270;28;20827;-60
2022/04/10 05:22:59;;;;;;;0.30;0.10;;;21.40;40.70;;;;;;5083332;28;20059;-60
2022/04/10 05:25:48;;;;;;;2.50;0.10;;;21.40;40.80;;;;;;5073340;28;20163;-59
2022/04/10 05:28:34;;;;;;;1.48;0.10;;;21.40;40.90;;;;;;5087818;28;20054;-60
2022/04/10 05:31:20;;;;;;;0.20;0.10;;;21.40;40.90;;;;;;5092162;28;20051;-59
2022/04/10 05:34:07;;;;;;;2.92;0.43;;;21.40;41.00;;;;;;5092200;28;20287;-59
2022/04/10 05:36:54;;;;;;;0.20;0.20;;;21.40;41.00;;;;;;5089561;28;20046;-59
2022/04/10 05:39:40;;;;;;;0.50;0.10;;;21.40;41.00;;;;;;5090165;28;20415;-60
2022/04/10 05:42:27;;;;;;;0.85;0.20;;;21.40;41.10;;;;;;5089236;28;20058;-57
2022/04/10 05:45:13;;;;;;;1.48;0.20;;;21.40;41.10;;;;;;5089728;28;20055;-61
2022/04/10 05:48:04;;;;;;;1.77;0.20;;;21.40;41.40;;;;;;5089643;28;20059;-60
2022/04/10 05:50:51;;;;;;;1.05;0.10;;;21.40;41.50;;;;;;5089658;28;20071;-62
2022/04/10 05:53:39;;;;;;;0.30;0.20;;;21.40;41.50;;;;;;5084128;28;20211;-60
2022/04/10 05:56:24;;;;;;;2.47;0.32;;;21.40;41.60;;;;;;5104558;27;20055;-60
2022/04/10 05:59:11;;;;;;;0.20;0.10;;;21.40;41.70;;;;;;5103901;28;20062;-60
2022/04/10 06:01:57;;;;;;;0.47;0.10;;;21.40;41.70;;;;;;5102856;28;20055;-60
2022/04/10 06:04:43;;;;;;;1.75;0.10;;;21.40;41.70;;;;;;5086852;28;20063;-60
2022/04/10 06:07:32;;;;;;;1.90;0.43;;;21.40;41.70;;;;;;5086730;28;20677;-60
2022/04/10 06:10:20;;;;;;;0.90;0.10;;;21.40;41.70;;;;;;5090128;28;20055;-61
2022/04/10 06:13:09;;;;;;;0.45;0.25;;;21.40;41.70;;;;;;5075191;28;20062;-61
2022/04/10 06:15:41;;;;;;;0.75;0.10;;;21.40;41.70;;;;;;5082748;28;20047;-60
2022/04/10 06:18:09;;;;;;;1.30;0.10;;;21.40;41.60;;;;;;5099152;28;20086;-60
2022/04/10 06:20:38;;;;;;;0.80;0.40;;;21.40;41.60;;;;;;5088652;28;20522;-60
2022/04/10 06:23:05;;;;;;;0.57;0.10;;;21.40;41.60;;;;;;5079203;28;20508;-60
2022/04/10 06:25:36;;;;;;;0.65;0.10;;;21.40;41.60;;;;;;5071334;28;20829;-59
2022/04/10 06:28:03;;;;;;;0.77;0.20;;;21.40;41.60;;;;;;5088538;28;20611;-61
2022/04/10 06:30:39;;;;;;;0.53;0.53;;;21.40;41.50;;;;;;5097983;27;20047;-62
2022/04/10 06:33:06;;;;;;;0.28;0.20;;;21.40;41.50;;;;;;5099588;28;20051;-62
2022/04/10 06:35:34;;;;;;;0.80;0.30;;;21.40;41.60;;;;;;5090226;28;20058;-60
2022/04/10 06:38:06;;;;;;;2.67;0.17;;;21.40;41.70;;;;;;5096993;28;20043;-61
2022/04/10 06:40:34;;;;;;;0.57;0.10;;;21.40;41.80;;;;;;5099059;28;20061;-60
2022/04/10 06:43:05;;;;;;;0.63;0.10;;;21.40;41.80;;;;;;5094815;28;20043;-60
2022/04/10 06:45:58;;;;;;;2.50;0.10;;;21.40;41.80;;;;;;5093686;28;20420;-60
2022/04/10 06:48:31;;;;;;;4.22;0.20;;;21.40;41.90;;;;;;5090589;28;20407;-55
2022/04/10 06:50:58;;;;;;;4.57;0.50;;;21.50;42.20;;;;;;5088813;28;20052;-60
2022/04/10 06:53:29;;;;;;;0.82;0.55;;;21.50;42.30;;;;;;5080857;28;20591;-61
2022/04/10 06:55:59;;;;;;;34.88;1.17;;;21.50;42.50;;;;;;5081305;28;20504;-57
2022/04/10 06:58:31;;;;;;;6.72;0.20;;;21.50;42.70;;;;;;5088972;28;20063;-54
2022/04/10 07:00:59;;;;;;;1.80;0.10;;;21.50;42.90;;;;;;5088693;28;20161;-52
2022/04/10 07:03:27;;;;;;;3.95;0.77;;;21.50;43.10;;;;;;5088530;28;20075;-54
2022/04/10 07:05:56;;;;;;;0.77;0.77;;;21.50;43.20;;;;;;5075267;28;20035;-56
2022/04/10 07:08:29;;;;;;;6.43;0.50;;;21.60;43.40;;;;;;5071098;28;20075;-61
2022/04/10 07:10:56;;;;;;;7.07;0.30;;;21.50;43.90;;;;;;5068543;28;20035;-55
2022/04/10 07:13:28;;;;;;;1.13;0.40;;;21.60;44.10;;;;;;5088868;28;20419;-59
2022/04/10 07:15:56;;;;;;;6.18;0.85;;;21.60;44.20;;;;;;5092099;28;20059;-51
2022/04/10 07:18:23;;;;;;;1.23;0.52;;;21.60;44.60;;;;;;5088427;28;20094;-52
2022/04/10 07:20:54;;;;;;;1.73;0.60;;;21.60;44.70;;;;;;5098756;28;20604;-55
2022/04/10 07:26:08;;;;;;;7.03;0.75;;;21.60;44.90;;;;;;5083820;28;20044;-62
2022/04/10 07:28:38;;;;;;;4.22;0.63;;;21.60;44.90;;;;;;5088155;28;20542;-65
2022/04/10 07:31:06;;;;;;;3.10;0.60;;;21.60;44.90;;;;;;5088104;28;20040;-65
2022/04/10 07:33:36;;;;;;;1.65;0.10;;;21.60;44.70;;;;;;5088009;28;20050;-62
2022/04/10 07:36:13;;;;;;;4.50;0.38;;;21.50;44.60;;;;;;5088762;28;20051;-61
2022/04/10 07:38:40;;;;;;;6.53;0.88;;;21.50;44.50;;;;;;5089284;28;20119;-64
2022/04/10 07:41:16;;;;;;;2.03;0.20;;;21.50;44.40;;;;;;5070703;28;20097;-65
2022/04/10 07:43:50;;;;;;;3.65;0.60;;;21.50;44.30;;;;;;5070258;28;20070;-64
2022/04/10 07:49:06;;;;;;;4.93;0.30;;;21.40;44.00;;;;;;5079881;28;20059;-63
2022/04/10 07:51:41;;;;;;;3.85;0.63;;;21.40;43.90;;;;;;5088894;28;20123;-63
2022/04/10 07:54:18;;;;;;;2.63;0.40;;;21.40;43.80;;;;;;5088606;28;20511;-63
2022/04/10 07:56:46;;;;;;;5.25;0.93;;;21.40;43.70;;;;;;5101724;28;20055;-63
2022/04/10 07:59:19;;;;;;;0.95;0.20;;;21.30;43.50;;;;;;5070368;28;20054;-64
2022/04/10 08:01:47;;;;;;;4.65;0.50;;;21.30;43.50;;;;;;5069658;28;20471;-63
2022/04/10 08:04:20;;;;;;;5.60;0.20;;;21.30;43.40;;;;;;5088730;28;20044;-63
2022/04/10 08:07:08;;;;;;;1.00;0.47;;;21.40;43.40;;;;;;5091812;28;20044;-64
2022/04/10 08:09:35;;;;;;;3.78;0.20;;;21.30;43.30;;;;;;5094475;28;20048;-64
2022/04/10 08:12:03;;;;;;;0.43;0.30;;;21.30;43.20;;;;;;5094118;28;20480;-63
2022/04/10 08:14:31;;;;;;;3.42;0.60;;;21.30;43.10;;;;;;5092377;28;20127;-63
2022/04/10 08:16:58;;;;;;;1.08;0.50;;;21.30;43.00;;;;;;5106943;28;20131;-63
2022/04/10 08:19:26;;;;;;;1.15;0.20;;;21.30;42.90;;;;;;5105040;28;20130;-64
2022/04/10 08:21:53;;;;;;;0.65;0.40;;;21.30;42.80;;;;;;5099090;28;20505;-63
2022/04/10 08:24:20;;;;;;;4.03;0.47;;;21.30;42.70;;;;;;5102307;28;20069;-62
2022/04/10 08:26:47;;;;;;;0.65;0.22;;;21.30;42.70;;;;;;5093963;28;20055;-63
2022/04/10 08:29:15;;;;;;;1.98;0.30;;;21.30;42.60;;;;;;5091728;28;20039;-62
2022/04/10 08:31:44;;;;;;;2.58;0.68;;;21.30;42.50;;;;;;5092413;28;20139;-63
2022/04/10 08:34:11;;;;;;;1.83;0.57;;;21.30;42.50;;;;;;5093613;28;20044;-62
2022/04/10 08:36:39;;;;;;;3.10;0.40;;;21.30;42.40;;;;;;5093537;28;20043;-65
2022/04/10 08:39:08;;;;;;;1.02;0.40;;;21.30;42.30;;;;;;5093699;28;20032;-64
2022/04/10 08:41:38;;;;;;;1.85;0.50;;;21.30;42.30;;;;;;5093837;28;20096;-63
2022/04/10 08:44:24;;;;;;;1.77;0.57;;;21.30;42.20;;;;;;5092666;28;20055;-63
2022/04/10 08:46:53;;;;;;;2.28;0.30;;;21.30;42.20;;;;;;5093147;27;20051;-64
2022/04/10 08:49:22;;;;;;;0.82;0.28;;;21.30;42.20;;;;;;5095448;27;20119;-64
2022/04/10 08:51:51;;;;;;;1.95;0.20;;;21.30;42.10;;;;;;5094039;28;20044;-63
2022/04/10 08:54:20;;;;;;;1.98;0.50;;;21.30;42.00;;;;;;5102119;28;20043;-62
2022/04/10 08:56:47;;;;;;;7.38;1.15;;;21.30;41.90;;;;;;5106056;28;20714;-61
2022/04/10 08:59:14;;;;;;;1.48;0.20;;;21.30;41.90;;;;;;5091017;28;20036;-62
2022/04/10 09:01:41;;;;;;;0.95;0.20;;;21.30;41.80;;;;;;5092178;28;20131;-63
2022/04/10 09:04:10;;;;;;;1.05;0.30;;;21.30;41.80;;;;;;5093071;28;20072;-62
2022/04/10 09:06:40;;;;;;;2.25;0.47;;;21.30;41.70;;;;;;5090631;28;20064;-63
2022/04/10 09:09:13;;;;;;;2.03;0.73;;;21.30;41.70;;;;;;5092090;28;20054;-64
2022/04/10 09:11:41;;;;;;;2.08;0.28;;;21.30;41.60;;;;;;5093120;28;20452;-64
2022/04/10 09:14:08;;;;;;;0.30;0.20;;;21.30;41.60;;;;;;5089282;28;20040;-63
2022/04/10 09:16:35;;;;;;;2.70;0.50;;;21.30;41.50;;;;;;5100988;28;20524;-63
2022/04/10 09:19:07;;;;;;;1.20;0.40;;;21.30;41.50;;;;;;5101553;28;20550;-63
2022/04/10 09:21:38;;;;;;;2.20;1.00;;;21.30;41.40;;;;;;5099347;28;20052;-63
2022/04/10 09:24:08;;;;;;;1.50;0.30;;;21.30;41.40;;;;;;5101645;28;20070;-63
2022/04/10 09:26:46;;;;;;;1.00;0.40;;;21.30;41.30;;;;;;5093033;28;20131;-63
2022/04/10 09:29:14;;;;;;;2.42;0.38;;;21.40;41.40;;;;;;5090246;28;20105;-64
2022/04/10 09:31:42;;;;;;;1.10;0.47;;;21.40;41.30;;;;;;5091692;28;20739;-64
2022/04/10 09:34:10;;;;;;;1.02;0.40;;;21.40;41.20;;;;;;5090812;28;20523;-65
2022/04/10 09:36:41;;;;;;;0.98;0.63;;;21.40;41.20;;;;;;5091161;28;20131;-64
2022/04/10 09:39:10;;;;;;;3.80;0.52;;;21.40;41.20;;;;;;5092099;28;20097;-62
2022/04/10 09:41:39;;;;;;;1.20;0.77;;;21.40;41.10;;;;;;5092248;28;20046;-63
2022/04/10 09:44:16;;;;;;;0.57;0.30;;;21.40;41.00;;;;;;5088995;28;20040;-63
2022/04/10 09:46:45;;;;;;;0.65;0.20;;;21.40;41.00;;;;;;5091008;28;20082;-63
2022/04/10 09:49:19;;;;;;;1.02;0.63;;;21.40;41.00;;;;;;5092080;28;20127;-62
2022/04/10 09:52:04;;;;;;;2.17;0.40;;;21.40;40.90;;;;;;5092372;28;20719;-63
2022/04/10 09:54:37;;;;;;;0.45;0.30;;;21.40;40.80;;;;;;5106452;27;20039;-63
2022/04/10 09:57:06;;;;;;;0.98;0.40;;;21.40;40.90;;;;;;5107280;28;20052;-62
2022/04/10 09:59:42;;;;;;;0.88;0.40;;;21.40;40.80;;;;;;5092181;28;20131;-62
2022/04/10 10:02:12;;;;;;;2.75;0.52;;;21.50;40.80;;;;;;5089868;28;20040;-62
2022/04/10 10:04:41;;;;;;;1.10;0.30;;;21.50;40.80;;;;;;5094049;28;20050;-64
2022/04/10 10:07:29;;;;;;;0.65;0.20;;;21.50;40.80;;;;;;5092334;28;20067;-62
2022/04/10 10:09:58;;;;;;;1.92;0.60;;;21.50;40.80;;;;;;5091902;28;20040;-63
2022/04/10 10:12:27;;;;;;;0.47;0.30;;;21.50;40.60;;;;;;5091971;28;20043;-63
2022/04/10 10:14:55;;;;;;;1.92;0.38;;;21.50;40.50;;;;;;5092089;28;20040;-63
2022/04/10 10:17:22;;;;;;;1.00;0.65;;;21.50;40.50;;;;;;5072750;28;20090;-63
2022/04/10 10:19:52;;;;;;;1.05;0.60;;;21.50;40.70;;;;;;5071535;28;20043;-64
2022/04/10 10:22:19;;;;;;;0.80;0.40;;;21.60;40.40;;;;;;5096667;28;20461;-64
2022/04/10 10:24:53;;;;;;;2.53;0.30;;;21.60;40.30;;;;;;5097756;28;20090;-62
2022/04/10 10:27:48;;;;;;;1.98;0.45;;;21.60;40.30;;;;;;5091381;28;20147;-63
2022/04/10 10:30:24;;;;;;;1.15;0.22;;;21.60;40.20;;;;;;5091512;28;20520;-63
2022/04/10 10:32:55;;;;;;;;;;;21.60;40.20;;;;;;5073939;28;20046;-63
2022/04/10 10:35:32;;;;;;;0.75;0.70;;;21.60;40.90;;;;;;5090541;28;19924;-63
2022/04/10 10:38:01;;;;;;;0.30;0.20;;;21.60;40.20;;;;;;5088148;28;20492;-63
2022/04/10 10:40:31;;;;;;;0.50;0.20;;;21.60;40.20;;;;;;5104932;28;20058;-64
2022/04/10 10:43:03;;;;;;;0.60;0.30;;;21.60;40.10;;;;;;5094749;28;20050;-64
2022/04/10 10:45:38;;;;;;;0.30;0.10;;;21.60;40.10;;;;;;5097562;27;20140;-63
2022/04/10 10:48:37;;;;;;;0.80;0.35;;;21.70;40.10;;;;;;5102450;28;20584;-63
2022/04/10 10:51:42;;;;;;;1.75;0.15;;;21.70;40.00;;;;;;5091516;28;20085;-64
2022/04/10 10:54:12;;;;;;;0.20;0.20;;;21.70;39.90;;;;;;5101667;28;20046;-63
2022/04/10 10:56:42;;;;;;;1.17;0.65;;;21.80;40.00;;;;;;5103310;28;20507;-64
2022/04/10 10:59:32;;;;;;;1.05;0.20;;;21.80;39.90;;;;;;5088915;28;20040;-63
2022/04/10 11:02:06;;;;;;;1.35;0.20;;;21.80;39.80;;;;;;5104271;28;20126;-64
2022/04/10 11:04:35;;;;;;;0.82;0.50;;;21.90;39.80;;;;;;5091168;28;20508;-64
2022/04/10 11:07:14;;;;;;;2.08;0.15;;;21.80;39.70;;;;;;5095673;28;20589;-63
2022/04/10 11:09:55;;;;;;;1.08;0.20;;;21.90;39.60;;;;;;5091216;28;20113;-64
2022/04/10 11:12:29;;;;;;;1.27;0.13;;;22.00;39.50;;;;;;5090844;28;20044;-64
2022/04/10 11:14:56;;;;;;;0.28;0.20;;;22.00;39.40;;;;;;5089656;28;20044;-64
2022/04/10 11:17:28;;;;;;;1.17;0.38;;;22.10;39.30;;;;;;5086891;28;20035;-64
2022/04/10 11:19:56;;;;;;;0.20;0.17;;;22.10;39.10;;;;;;5107888;28;20292;-64
2022/04/10 11:22:25;;;;;;;1.45;0.20;;;22.20;39.10;;;;;;5097061;28;20552;-64
2022/04/10 11:24:53;;;;;;;1.15;0.45;;;22.20;39.00;;;;;;5093500;28;20044;-63
2022/04/10 11:27:42;;;;;;;1.80;0.35;;;22.30;38.90;;;;;;5090974;28;20047;-64
2022/04/10 11:30:12;;;;;;;0.30;0.20;;;22.40;38.80;;;;;;5090684;28;20048;-63
2022/04/10 11:32:45;;;;;;;1.00;0.20;;;22.40;38.70;;;;;;5090632;28;20042;-63
2022/04/10 11:35:21;;;;;;;0.20;0.10;;;22.50;38.70;;;;;;5088730;28;20568;-63
2022/04/10 11:37:51;;;;;;;1.52;0.20;;;22.60;38.60;;;;;;5088540;28;20048;-64
2022/04/10 11:40:20;;;;;;;1.17;0.20;;;22.60;38.50;;;;;;5089182;28;20044;-64
2022/04/10 11:42:49;;;;;;;1.13;0.20;;;22.60;39.00;;;;;;5095014;28;20046;-63
2022/04/10 11:45:18;;;;;;;0.70;0.70;;;22.70;38.30;;;;;;5099071;28;20055;-64
2022/04/10 11:47:45;;;;;;;0.45;0.45;;;22.80;38.30;;;;;;5088732;28;20055;-64
2022/04/10 11:50:13;;;;;;;0.30;0.10;;;22.80;38.20;;;;;;5104901;28;20044;-64
2022/04/10 11:52:57;;;;;;;1.20;0.30;;;22.90;38.10;;;;;;5099916;28;20047;-64
2022/04/10 11:55:30;;;;;;;0.43;0.32;;;23.00;38.00;;;;;;5098769;28;20207;-63
2022/04/10 11:58:00;;;;;;;0.95;0.30;;;23.00;37.90;;;;;;5087524;28;20072;-64
2022/04/10 12:00:27;;;;;;;2.38;0.20;;;23.10;37.90;;;;;;5097886;28;20559;-64
2022/04/10 12:02:55;;;;;;;0.20;0.10;;;23.10;37.70;;;;;;5089789;28;20558;-64
2022/04/10 12:05:41;;;;;;;0.20;0.10;;;23.20;37.70;;;;;;5090360;28;20051;-63
2022/04/10 12:08:09;;;;;;;0.32;0.20;;;23.20;37.60;;;;;;5087355;28;20052;-64
2022/04/10 12:10:36;;;;;;;0.30;0.10;;;23.30;37.50;;;;;;5089943;28;20040;-63
2022/04/10 12:13:05;;;;;;;0.20;0.10;;;23.30;37.40;;;;;;5090184;28;20071;-64
2022/04/10 12:15:33;;;;;;;0.40;0.10;;;23.40;37.30;;;;;;5089676;28;20068;-63
2022/04/10 12:18:07;;;;;;;0.47;0.20;;;23.40;37.20;;;;;;5089507;28;20044;-64
2022/04/10 12:20:34;;;;;;;1.55;0.30;;;23.50;37.20;;;;;;5089920;28;20133;-64
2022/04/10 12:23:01;;;;;;;0.20;0.20;;;23.50;37.10;;;;;;5078283;28;20712;-64
2022/04/10 12:25:29;;;;;;;1.52;0.10;;;23.60;37.00;;;;;;5091722;28;20068;-64
2022/04/10 12:27:56;;;;;;;0.22;0.10;;;23.70;37.00;;;;;;5089546;28;20720;-64
2022/04/10 12:30:25;;;;;;;0.90;0.20;;;23.70;36.90;;;;;;5089709;28;20131;-64
2022/04/10 12:32:53;;;;;;;0.68;0.20;;;23.80;36.80;;;;;;5089997;28;20044;-64
2022/04/10 12:35:20;;;;;;;0.10;0.10;;;23.80;36.70;;;;;;5088851;28;20122;-64
2022/04/10 12:38:00;;;;;;;0.22;0.10;;;23.90;36.70;;;;;;5098855;28;20050;-64
2022/04/10 12:40:27;;;;;;;0.57;0.10;;;23.90;36.60;;;;;;5091261;28;20144;-64
2022/04/10 12:42:59;;;;;;;1.85;0.10;;;24.00;36.50;;;;;;5088480;28;20501;-64
2022/04/10 12:45:30;;;;;;;1.45;0.10;;;24.00;36.40;;;;;;5090092;28;20742;-64
2022/04/10 12:47:58;;;;;;;0.47;0.40;;;24.10;36.40;;;;;;5090160;28;20464;-64
2022/04/10 12:50:28;;;;;;;0.82;0.65;;;24.10;36.30;;;;;;5089386;28;20048;-64
2022/04/10 12:52:56;;;;;;;0.63;0.10;;;24.20;36.30;;;;;;5105999;28;20355;-63
2022/04/10 12:55:25;;;;;;;1.90;0.20;;;24.20;36.20;;;;;;5101619;28;20790;-64
2022/04/10 12:57:54;;;;;;;0.95;0.20;;;24.30;36.10;;;;;;5097395;28;20058;-65
2022/04/10 13:00:33;;;;;;;1.23;0.10;;;24.40;36.10;;;;;;5092993;28;20040;-64
2022/04/10 13:03:18;;;;;;;1.13;0.20;;;24.40;36.00;;;;;;5093289;28;20123;-64
2022/04/10 13:05:57;;;;;;;0.90;0.22;;;24.50;35.90;;;;;;5092971;28;20100;-64
2022/04/10 13:08:25;;;;;;;0.17;0.10;;;24.60;35.90;;;;;;5092247;28;20104;-64
2022/04/10 13:10:53;;;;;;;0.10;0.10;;;24.60;35.80;;;;;;5090781;28;20036;-64
2022/04/10 13:13:20;;;;;;;0.85;0.10;;;24.70;35.60;;;;;;5108515;28;20138;-64
2022/04/10 13:15:49;;;;;;;0.20;0.10;;;24.70;35.60;;;;;;5097904;28;20637;-64
2022/04/10 13:18:17;;;;;;;0.43;0.43;;;24.80;35.50;;;;;;5093559;28;20059;-63
2022/04/10 13:20:44;;;;;;;0.57;0.20;;;24.80;35.40;;;;;;5093046;28;20071;-64
2022/04/10 13:23:11;;;;;;;0.30;0.10;;;24.80;35.40;;;;;;5100834;28;20056;-65
2022/04/10 13:25:38;;;;;;;0.10;0.10;;;24.90;35.30;;;;;;5094796;28;20040;-64
2022/04/10 13:28:06;;;;;;;0.17;0.10;;;24.90;35.20;;;;;;5092898;28;20059;-64
2022/04/10 13:30:34;;;;;;;0.10;0.00;;;25.00;35.20;;;;;;5092765;28;20075;-64